sensor_id;sensor_type;location;lat;lon;timestamp;P1;durP1;ratioP1;P2;durP2;ratioP2
74543;SDS011;63016;55.030;38.710;2023-05-29T00:00:13;7.80;;;2.15;;
74543;SDS011;63016;55.030;38.710;2023-05-29T00:02:39;9.15;;;2.30;;
74543;SDS011;63016;55.030;38.710;2023-05-29T00:05:10;4.35;;;1.83;;
74543;SDS011;63016;55.030;38.710;2023-05-29T00:07:37;4.78;;;1.77;;
74543;SDS011;63016;55.030;38.710;2023-05-29T00:10:03;4.80;;;1.90;;
74543;SDS011;63016;55.030;38.710;2023-05-29T00:12:29;4.50;;;2.03;;
74543;SDS011;63016;55.030;38.710;2023-05-29T00:14:55;4.05;;;2.13;;
74543;SDS011;63016;55.030;38.710;2023-05-29T00:17:20;4.95;;;1.80;;
74543;SDS011;63016;55.030;38.710;2023-05-29T00:19:46;5.25;;;1.95;;
74543;SDS011;63016;55.030;38.710;2023-05-29T00:22:12;5.78;;;2.03;;
74543;SDS011;63016;55.030;38.710;2023-05-29T00:24:37;3.53;;;2.00;;
74543;SDS011;63016;55.030;38.710;2023-05-29T00:27:03;6.40;;;2.08;;
74543;SDS011;63016;55.030;38.710;2023-05-29T00:29:29;3.70;;;1.90;;
74543;SDS011;63016;55.030;38.710;2023-05-29T00:31:54;7.82;;;2.25;;
74543;SDS011;63016;55.030;38.710;2023-05-29T00:34:21;4.18;;;2.33;;
74543;SDS011;63016;55.030;38.710;2023-05-29T00:36:48;5.70;;;2.38;;
74543;SDS011;63016;55.030;38.710;2023-05-29T00:39:14;4.60;;;2.25;;
74543;SDS011;63016;55.030;38.710;2023-05-29T00:41:39;5.50;;;2.47;;
74543;SDS011;63016;55.030;38.710;2023-05-29T00:44:05;4.20;;;2.13;;
74543;SDS011;63016;55.030;38.710;2023-05-29T00:46:31;4.40;;;2.28;;
74543;SDS011;63016;55.030;38.710;2023-05-29T00:49:00;6.32;;;2.03;;
74543;SDS011;63016;55.030;38.710;2023-05-29T00:51:27;4.03;;;2.33;;
74543;SDS011;63016;55.030;38.710;2023-05-29T00:53:54;3.53;;;1.95;;
74543;SDS011;63016;55.030;38.710;2023-05-29T00:56:20;5.43;;;2.10;;
74543;SDS011;63016;55.030;38.710;2023-05-29T00:58:48;4.47;;;2.38;;
74543;SDS011;63016;55.030;38.710;2023-05-29T01:01:15;2.90;;;1.90;;
74543;SDS011;63016;55.030;38.710;2023-05-29T01:03:43;5.07;;;2.40;;
74543;SDS011;63016;55.030;38.710;2023-05-29T01:06:08;5.50;;;2.03;;
74543;SDS011;63016;55.030;38.710;2023-05-29T01:08:35;5.05;;;2.13;;
74543;SDS011;63016;55.030;38.710;2023-05-29T01:11:04;3.40;;;1.83;;
74543;SDS011;63016;55.030;38.710;2023-05-29T01:13:37;5.30;;;2.10;;
74543;SDS011;63016;55.030;38.710;2023-05-29T01:29:55;4.05;;;1.90;;
74543;SDS011;63016;55.030;38.710;2023-05-29T01:32:23;4.70;;;2.20;;
74543;SDS011;63016;55.030;38.710;2023-05-29T01:34:51;4.70;;;2.28;;
74543;SDS011;63016;55.030;38.710;2023-05-29T01:37:16;4.55;;;2.33;;
74543;SDS011;63016;55.030;38.710;2023-05-29T01:39:41;4.72;;;1.83;;
74543;SDS011;63016;55.030;38.710;2023-05-29T01:42:07;3.70;;;2.08;;
74543;SDS011;63016;55.030;38.710;2023-05-29T01:44:33;3.90;;;2.00;;
74543;SDS011;63016;55.030;38.710;2023-05-29T01:47:00;7.40;;;2.00;;
74543;SDS011;63016;55.030;38.710;2023-05-29T01:49:27;5.47;;;2.00;;
74543;SDS011;63016;55.030;38.710;2023-05-29T01:51:54;4.65;;;2.05;;
74543;SDS011;63016;55.030;38.710;2023-05-29T01:54:20;4.47;;;2.40;;
74543;SDS011;63016;55.030;38.710;2023-05-29T01:56:45;7.03;;;1.85;;
74543;SDS011;63016;55.030;38.710;2023-05-29T01:59:12;6.75;;;1.77;;
74543;SDS011;63016;55.030;38.710;2023-05-29T02:01:38;3.53;;;1.70;;
74543;SDS011;63016;55.030;38.710;2023-05-29T02:04:04;4.22;;;1.90;;
74543;SDS011;63016;55.030;38.710;2023-05-29T02:06:30;5.40;;;2.33;;
74543;SDS011;63016;55.030;38.710;2023-05-29T02:08:56;2.53;;;1.60;;
74543;SDS011;63016;55.030;38.710;2023-05-29T02:11:21;3.97;;;1.60;;
74543;SDS011;63016;55.030;38.710;2023-05-29T02:13:47;4.05;;;1.90;;
74543;SDS011;63016;55.030;38.710;2023-05-29T02:16:12;2.85;;;1.80;;
74543;SDS011;63016;55.030;38.710;2023-05-29T02:18:38;4.40;;;1.77;;
74543;SDS011;63016;55.030;38.710;2023-05-29T02:21:04;3.97;;;1.90;;
74543;SDS011;63016;55.030;38.710;2023-05-29T02:23:29;4.53;;;1.63;;
74543;SDS011;63016;55.030;38.710;2023-05-29T02:25:55;3.92;;;1.70;;
74543;SDS011;63016;55.030;38.710;2023-05-29T02:28:20;5.32;;;1.70;;
74543;SDS011;63016;55.030;38.710;2023-05-29T02:30:46;3.50;;;1.77;;
74543;SDS011;63016;55.030;38.710;2023-05-29T02:33:11;4.78;;;1.77;;
74543;SDS011;63016;55.030;38.710;2023-05-29T02:35:37;2.58;;;1.55;;
74543;SDS011;63016;55.030;38.710;2023-05-29T02:38:03;3.03;;;1.50;;
74543;SDS011;63016;55.030;38.710;2023-05-29T02:40:28;3.90;;;1.70;;
74543;SDS011;63016;55.030;38.710;2023-05-29T02:42:53;4.22;;;1.63;;
74543;SDS011;63016;55.030;38.710;2023-05-29T02:45:19;5.90;;;1.70;;
74543;SDS011;63016;55.030;38.710;2023-05-29T02:47:44;4.05;;;1.80;;
74543;SDS011;63016;55.030;38.710;2023-05-29T02:50:10;5.05;;;1.40;;
74543;SDS011;63016;55.030;38.710;2023-05-29T02:52:36;3.05;;;1.33;;
74543;SDS011;63016;55.030;38.710;2023-05-29T02:55:05;3.67;;;1.52;;
74543;SDS011;63016;55.030;38.710;2023-05-29T02:57:30;1.95;;;1.38;;
74543;SDS011;63016;55.030;38.710;2023-05-29T02:59:56;2.30;;;1.50;;
74543;SDS011;63016;55.030;38.710;2023-05-29T03:02:21;2.33;;;1.40;;
74543;SDS011;63016;55.030;38.710;2023-05-29T03:04:47;6.85;;;1.42;;
74543;SDS011;63016;55.030;38.710;2023-05-29T03:07:16;4.18;;;1.58;;
74543;SDS011;63016;55.030;38.710;2023-05-29T03:09:41;3.50;;;1.33;;
74543;SDS011;63016;55.030;38.710;2023-05-29T03:12:07;4.85;;;1.23;;
74543;SDS011;63016;55.030;38.710;2023-05-29T03:14:33;5.75;;;1.67;;
74543;SDS011;63016;55.030;38.710;2023-05-29T03:17:01;4.78;;;1.55;;
74543;SDS011;63016;55.030;38.710;2023-05-29T03:19:29;2.90;;;1.38;;
74543;SDS011;63016;55.030;38.710;2023-05-29T03:21:54;2.25;;;1.30;;
74543;SDS011;63016;55.030;38.710;2023-05-29T03:24:20;1.95;;;1.10;;
74543;SDS011;63016;55.030;38.710;2023-05-29T03:26:45;2.95;;;1.15;;
74543;SDS011;63016;55.030;38.710;2023-05-29T03:29:11;1.50;;;1.10;;
74543;SDS011;63016;55.030;38.710;2023-05-29T03:31:36;3.05;;;1.13;;
74543;SDS011;63016;55.030;38.710;2023-05-29T03:34:02;3.58;;;1.20;;
74543;SDS011;63016;55.030;38.710;2023-05-29T03:36:27;3.35;;;1.27;;
74543;SDS011;63016;55.030;38.710;2023-05-29T03:38:53;3.40;;;1.30;;
74543;SDS011;63016;55.030;38.710;2023-05-29T03:41:19;2.45;;;1.20;;
74543;SDS011;63016;55.030;38.710;2023-05-29T03:43:44;4.05;;;1.20;;
74543;SDS011;63016;55.030;38.710;2023-05-29T03:46:10;4.63;;;1.40;;
74543;SDS011;63016;55.030;38.710;2023-05-29T03:48:35;2.72;;;1.20;;
74543;SDS011;63016;55.030;38.710;2023-05-29T03:51:01;3.67;;;1.10;;
74543;SDS011;63016;55.030;38.710;2023-05-29T03:53:26;2.50;;;1.10;;
74543;SDS011;63016;55.030;38.710;2023-05-29T03:55:52;4.97;;;1.20;;
74543;SDS011;63016;55.030;38.710;2023-05-29T03:58:17;2.85;;;1.23;;
74543;SDS011;63016;55.030;38.710;2023-05-29T04:00:43;7.50;;;1.35;;
74543;SDS011;63016;55.030;38.710;2023-05-29T04:03:08;1.92;;;1.15;;
74543;SDS011;63016;55.030;38.710;2023-05-29T04:05:34;3.47;;;1.00;;
74543;SDS011;63016;55.030;38.710;2023-05-29T04:08:00;3.00;;;1.20;;
74543;SDS011;63016;55.030;38.710;2023-05-29T04:10:26;3.67;;;1.10;;
74543;SDS011;63016;55.030;38.710;2023-05-29T04:12:51;4.40;;;1.15;;
74543;SDS011;63016;55.030;38.710;2023-05-29T04:15:35;3.83;;;1.00;;
74543;SDS011;63016;55.030;38.710;2023-05-29T04:20:45;1.60;;;1.13;;
74543;SDS011;63016;55.030;38.710;2023-05-29T04:23:12;1.50;;;0.90;;
74543;SDS011;63016;55.030;38.710;2023-05-29T04:25:38;2.28;;;1.00;;
74543;SDS011;63016;55.030;38.710;2023-05-29T04:28:04;3.17;;;1.10;;
74543;SDS011;63016;55.030;38.710;2023-05-29T04:30:30;2.33;;;1.00;;
74543;SDS011;63016;55.030;38.710;2023-05-29T04:32:57;1.98;;;0.98;;
74543;SDS011;63016;55.030;38.710;2023-05-29T04:35:24;1.45;;;0.90;;
74543;SDS011;63016;55.030;38.710;2023-05-29T04:37:49;2.25;;;0.85;;
74543;SDS011;63016;55.030;38.710;2023-05-29T04:40:15;2.40;;;1.02;;
74543;SDS011;63016;55.030;38.710;2023-05-29T04:42:42;3.92;;;0.90;;
74543;SDS011;63016;55.030;38.710;2023-05-29T04:45:10;1.80;;;0.95;;
74543;SDS011;63016;55.030;38.710;2023-05-29T04:50:21;3.17;;;0.77;;
74543;SDS011;63016;55.030;38.710;2023-05-29T04:52:48;2.38;;;0.95;;
74543;SDS011;63016;55.030;38.710;2023-05-29T04:55:13;1.73;;;0.80;;
74543;SDS011;63016;55.030;38.710;2023-05-29T04:57:39;1.38;;;0.90;;
74543;SDS011;63016;55.030;38.710;2023-05-29T05:00:05;2.45;;;0.90;;
74543;SDS011;63016;55.030;38.710;2023-05-29T05:02:38;2.17;;;0.80;;
74543;SDS011;63016;55.030;38.710;2023-05-29T05:05:04;1.58;;;0.90;;
74543;SDS011;63016;55.030;38.710;2023-05-29T05:07:30;4.22;;;1.00;;
74543;SDS011;63016;55.030;38.710;2023-05-29T05:10:14;2.35;;;0.70;;
74543;SDS011;63016;55.030;38.710;2023-05-29T05:12:39;1.90;;;1.00;;
74543;SDS011;63016;55.030;38.710;2023-05-29T05:15:05;2.03;;;0.80;;
74543;SDS011;63016;55.030;38.710;2023-05-29T05:17:49;1.70;;;0.88;;
74543;SDS011;63016;55.030;38.710;2023-05-29T05:20:15;1.08;;;0.70;;
74543;SDS011;63016;55.030;38.710;2023-05-29T05:22:41;1.05;;;0.77;;
74543;SDS011;63016;55.030;38.710;2023-05-29T05:25:07;4.07;;;1.42;;
74543;SDS011;63016;55.030;38.710;2023-05-29T05:27:33;3.42;;;0.80;;
74543;SDS011;63016;55.030;38.710;2023-05-29T05:29:58;4.40;;;0.90;;
74543;SDS011;63016;55.030;38.710;2023-05-29T05:32:24;2.80;;;0.80;;
74543;SDS011;63016;55.030;38.710;2023-05-29T05:35:08;2.00;;;0.80;;
74543;SDS011;63016;55.030;38.710;2023-05-29T05:37:36;1.70;;;0.80;;
74543;SDS011;63016;55.030;38.710;2023-05-29T05:40:02;2.78;;;0.90;;
74543;SDS011;63016;55.030;38.710;2023-05-29T05:42:28;2.80;;;0.90;;
74543;SDS011;63016;55.030;38.710;2023-05-29T05:44:54;4.68;;;0.90;;
74543;SDS011;63016;55.030;38.710;2023-05-29T05:47:19;2.58;;;0.70;;
74543;SDS011;63016;55.030;38.710;2023-05-29T05:49:45;2.67;;;0.77;;
74543;SDS011;63016;55.030;38.710;2023-05-29T05:52:10;1.42;;;0.77;;
74543;SDS011;63016;55.030;38.710;2023-05-29T05:54:36;2.45;;;0.68;;
74543;SDS011;63016;55.030;38.710;2023-05-29T05:57:02;3.42;;;0.70;;
74543;SDS011;63016;55.030;38.710;2023-05-29T05:59:28;3.30;;;0.80;;
74543;SDS011;63016;55.030;38.710;2023-05-29T06:01:53;2.25;;;0.82;;
74543;SDS011;63016;55.030;38.710;2023-05-29T06:04:19;3.35;;;0.77;;
74543;SDS011;63016;55.030;38.710;2023-05-29T06:06:45;2.92;;;0.63;;
74543;SDS011;63016;55.030;38.710;2023-05-29T06:09:11;1.55;;;0.60;;
74543;SDS011;63016;55.030;38.710;2023-05-29T06:11:36;3.22;;;0.70;;
74543;SDS011;63016;55.030;38.710;2023-05-29T06:14:02;3.30;;;0.75;;
74543;SDS011;63016;55.030;38.710;2023-05-29T06:16:28;2.50;;;0.60;;
74543;SDS011;63016;55.030;38.710;2023-05-29T06:18:54;1.35;;;0.60;;
74543;SDS011;63016;55.030;38.710;2023-05-29T06:21:20;4.68;;;0.90;;
74543;SDS011;63016;55.030;38.710;2023-05-29T06:23:45;1.98;;;0.52;;
74543;SDS011;63016;55.030;38.710;2023-05-29T06:26:11;0.52;;;0.50;;
74543;SDS011;63016;55.030;38.710;2023-05-29T06:28:37;1.15;;;0.70;;
74543;SDS011;63016;55.030;38.710;2023-05-29T06:31:03;0.95;;;0.65;;
74543;SDS011;63016;55.030;38.710;2023-05-29T06:33:28;2.90;;;0.70;;
74543;SDS011;63016;55.030;38.710;2023-05-29T06:35:55;1.40;;;0.63;;
74543;SDS011;63016;55.030;38.710;2023-05-29T06:38:20;1.00;;;0.70;;
74543;SDS011;63016;55.030;38.710;2023-05-29T06:40:46;1.17;;;0.60;;
74543;SDS011;63016;55.030;38.710;2023-05-29T06:43:11;1.60;;;0.80;;
74543;SDS011;63016;55.030;38.710;2023-05-29T06:45:37;0.85;;;0.75;;
74543;SDS011;63016;55.030;38.710;2023-05-29T06:48:03;1.02;;;0.60;;
74543;SDS011;63016;55.030;38.710;2023-05-29T06:50:28;0.75;;;0.57;;
74543;SDS011;63016;55.030;38.710;2023-05-29T06:52:54;1.00;;;0.60;;
74543;SDS011;63016;55.030;38.710;2023-05-29T06:55:19;2.55;;;0.60;;
74543;SDS011;63016;55.030;38.710;2023-05-29T06:57:45;1.15;;;0.60;;
74543;SDS011;63016;55.030;38.710;2023-05-29T07:00:11;1.45;;;0.60;;
74543;SDS011;63016;55.030;38.710;2023-05-29T07:02:37;0.60;;;0.50;;
74543;SDS011;63016;55.030;38.710;2023-05-29T07:05:03;0.52;;;0.47;;
74543;SDS011;63016;55.030;38.710;2023-05-29T07:07:28;2.38;;;0.50;;
74543;SDS011;63016;55.030;38.710;2023-05-29T07:09:54;2.13;;;0.50;;
74543;SDS011;63016;55.030;38.710;2023-05-29T07:12:21;2.70;;;0.50;;
74543;SDS011;63016;55.030;38.710;2023-05-29T07:14:47;2.40;;;0.50;;
74543;SDS011;63016;55.030;38.710;2023-05-29T07:17:13;1.75;;;0.50;;
74543;SDS011;63016;55.030;38.710;2023-05-29T07:19:39;0.60;;;0.50;;
74543;SDS011;63016;55.030;38.710;2023-05-29T07:22:05;1.40;;;0.50;;
74543;SDS011;63016;55.030;38.710;2023-05-29T07:24:30;0.93;;;0.60;;
74543;SDS011;63016;55.030;38.710;2023-05-29T07:26:56;1.63;;;0.40;;
74543;SDS011;63016;55.030;38.710;2023-05-29T07:29:22;2.38;;;0.60;;
74543;SDS011;63016;55.030;38.710;2023-05-29T07:31:49;2.15;;;0.45;;
74543;SDS011;63016;55.030;38.710;2023-05-29T07:34:14;1.83;;;0.50;;
74543;SDS011;63016;55.030;38.710;2023-05-29T07:39:29;1.40;;;0.60;;
74543;SDS011;63016;55.030;38.710;2023-05-29T07:44:42;1.08;;;0.47;;
74543;SDS011;63016;55.030;38.710;2023-05-29T07:47:08;2.15;;;0.50;;
74543;SDS011;63016;55.030;38.710;2023-05-29T07:49:34;0.68;;;0.50;;
74543;SDS011;63016;55.030;38.710;2023-05-29T07:52:01;2.67;;;0.50;;
74543;SDS011;63016;55.030;38.710;2023-05-29T07:54:27;1.25;;;0.55;;
74543;SDS011;63016;55.030;38.710;2023-05-29T07:56:53;0.85;;;0.50;;
74543;SDS011;63016;55.030;38.710;2023-05-29T07:59:19;1.60;;;0.70;;
74543;SDS011;63016;55.030;38.710;2023-05-29T08:01:44;1.80;;;0.57;;
74543;SDS011;63016;55.030;38.710;2023-05-29T08:04:10;1.80;;;0.47;;
74543;SDS011;63016;55.030;38.710;2023-05-29T08:06:36;1.42;;;0.50;;
74543;SDS011;63016;55.030;38.710;2023-05-29T08:09:02;0.90;;;0.60;;
74543;SDS011;63016;55.030;38.710;2023-05-29T08:11:28;2.15;;;0.65;;
74543;SDS011;63016;55.030;38.710;2023-05-29T08:13:54;2.53;;;0.43;;
74543;SDS011;63016;55.030;38.710;2023-05-29T08:16:20;0.68;;;0.50;;
74543;SDS011;63016;55.030;38.710;2023-05-29T08:18:47;0.98;;;0.52;;
74543;SDS011;63016;55.030;38.710;2023-05-29T08:21:31;1.40;;;0.50;;
74543;SDS011;63016;55.030;38.710;2023-05-29T08:23:57;1.65;;;0.50;;
74543;SDS011;63016;55.030;38.710;2023-05-29T08:26:23;2.38;;;0.60;;
74543;SDS011;63016;55.030;38.710;2023-05-29T08:28:48;1.35;;;0.60;;
74543;SDS011;63016;55.030;38.710;2023-05-29T08:31:14;1.55;;;0.50;;
74543;SDS011;63016;55.030;38.710;2023-05-29T08:33:40;1.23;;;0.47;;
74543;SDS011;63016;55.030;38.710;2023-05-29T08:36:06;0.75;;;0.40;;
74543;SDS011;63016;55.030;38.710;2023-05-29T08:38:32;0.98;;;0.50;;
74543;SDS011;63016;55.030;38.710;2023-05-29T08:40:57;0.77;;;0.40;;
74543;SDS011;63016;55.030;38.710;2023-05-29T08:43:24;1.55;;;0.50;;
74543;SDS011;63016;55.030;38.710;2023-05-29T08:45:55;0.70;;;0.40;;
74543;SDS011;63016;55.030;38.710;2023-05-29T08:48:26;0.97;;;0.30;;
74543;SDS011;63016;55.030;38.710;2023-05-29T08:50:54;1.05;;;0.60;;
74543;SDS011;63016;55.030;38.710;2023-05-29T08:53:21;0.80;;;0.50;;
74543;SDS011;63016;55.030;38.710;2023-05-29T08:55:47;2.05;;;0.60;;
74543;SDS011;63016;55.030;38.710;2023-05-29T08:58:17;2.40;;;0.50;;
74543;SDS011;63016;55.030;38.710;2023-05-29T09:00:45;0.50;;;0.50;;
74543;SDS011;63016;55.030;38.710;2023-05-29T09:03:11;2.53;;;0.63;;
74543;SDS011;63016;55.030;38.710;2023-05-29T09:05:38;0.98;;;0.50;;
74543;SDS011;63016;55.030;38.710;2023-05-29T09:08:05;1.63;;;0.60;;
74543;SDS011;63016;55.030;38.710;2023-05-29T09:10:33;1.52;;;0.47;;
74543;SDS011;63016;55.030;38.710;2023-05-29T09:12:59;3.35;;;0.55;;
74543;SDS011;63016;55.030;38.710;2023-05-29T09:15:24;3.75;;;0.60;;
74543;SDS011;63016;55.030;38.710;2023-05-29T09:18:08;6.57;;;0.60;;
74543;SDS011;63016;55.030;38.710;2023-05-29T09:20:34;4.15;;;0.50;;
74543;SDS011;63016;55.030;38.710;2023-05-29T09:25:29;2.00;;;0.55;;
74543;SDS011;63016;55.030;38.710;2023-05-29T09:27:58;5.13;;;0.55;;
74543;SDS011;63016;55.030;38.710;2023-05-29T09:33:47;4.03;;;0.50;;
74543;SDS011;63016;55.030;38.710;2023-05-29T09:36:19;1.10;;;0.52;;
74543;SDS011;63016;55.030;38.710;2023-05-29T09:38:47;1.25;;;0.60;;
74543;SDS011;63016;55.030;38.710;2023-05-29T09:41:13;1.85;;;0.60;;
74543;SDS011;63016;55.030;38.710;2023-05-29T09:43:38;3.83;;;0.80;;
74543;SDS011;63016;55.030;38.710;2023-05-29T09:46:05;0.70;;;0.50;;
74543;SDS011;63016;55.030;38.710;2023-05-29T09:48:34;1.60;;;0.50;;
74543;SDS011;63016;55.030;38.710;2023-05-29T09:51:00;1.00;;;0.50;;
74543;SDS011;63016;55.030;38.710;2023-05-29T09:53:27;2.33;;;0.60;;
74543;SDS011;63016;55.030;38.710;2023-05-29T09:55:56;2.38;;;0.60;;
74543;SDS011;63016;55.030;38.710;2023-05-29T09:58:25;2.80;;;0.60;;
74543;SDS011;63016;55.030;38.710;2023-05-29T10:00:51;2.90;;;0.73;;
74543;SDS011;63016;55.030;38.710;2023-05-29T10:03:18;2.17;;;0.50;;
74543;SDS011;63016;55.030;38.710;2023-05-29T10:06:02;1.58;;;0.40;;
74543;SDS011;63016;55.030;38.710;2023-05-29T10:08:31;1.10;;;0.57;;
74543;SDS011;63016;55.030;38.710;2023-05-29T10:11:02;0.73;;;0.50;;
74543;SDS011;63016;55.030;38.710;2023-05-29T10:13:32;1.20;;;0.50;;
74543;SDS011;63016;55.030;38.710;2023-05-29T10:16:20;1.67;;;0.50;;
74543;SDS011;63016;55.030;38.710;2023-05-29T10:18:57;2.15;;;0.50;;
74543;SDS011;63016;55.030;38.710;2023-05-29T10:21:27;3.72;;;0.63;;
74543;SDS011;63016;55.030;38.710;2023-05-29T10:23:53;2.42;;;0.70;;
74543;SDS011;63016;55.030;38.710;2023-05-29T10:26:21;3.95;;;0.80;;
74543;SDS011;63016;55.030;38.710;2023-05-29T10:37:08;1.73;;;0.52;;
74543;SDS011;63016;55.030;38.710;2023-05-29T10:39:42;3.15;;;0.68;;
74543;SDS011;63016;55.030;38.710;2023-05-29T10:42:42;8.13;;;3.45;;
74543;SDS011;63016;55.030;38.710;2023-05-29T10:45:05;3.13;;;1.23;;
74543;SDS011;63016;55.030;38.710;2023-05-29T10:47:31;5.32;;;1.55;;
74543;SDS011;63016;55.030;38.710;2023-05-29T10:50:00;8.13;;;2.05;;
74543;SDS011;63016;55.030;38.710;2023-05-29T10:52:30;7.80;;;2.40;;
74543;SDS011;63016;55.030;38.710;2023-05-29T10:55:15;9.52;;;3.53;;
74543;SDS011;63016;55.030;38.710;2023-05-29T10:57:46;3.90;;;1.27;;
74543;SDS011;63016;55.030;38.710;2023-05-29T11:00:15;1.60;;;0.70;;
74543;SDS011;63016;55.030;38.710;2023-05-29T11:02:44;2.97;;;0.88;;
74543;SDS011;63016;55.030;38.710;2023-05-29T11:36:00;1.27;;;0.60;;
74543;SDS011;63016;55.030;38.710;2023-05-29T11:38:26;3.47;;;0.68;;
74543;SDS011;63016;55.030;38.710;2023-05-29T11:40:53;0.65;;;0.60;;
74543;SDS011;63016;55.030;38.710;2023-05-29T11:43:20;1.63;;;0.52;;
74543;SDS011;63016;55.030;38.710;2023-05-29T11:45:46;3.67;;;0.80;;
74543;SDS011;63016;55.030;38.710;2023-05-29T11:48:12;1.00;;;0.70;;
74543;SDS011;63016;55.030;38.710;2023-05-29T11:50:38;4.97;;;0.70;;
74543;SDS011;63016;55.030;38.710;2023-05-29T11:53:05;5.47;;;0.80;;
74543;SDS011;63016;55.030;38.710;2023-05-29T11:55:32;3.55;;;0.60;;
74543;SDS011;63016;55.030;38.710;2023-05-29T11:57:58;4.53;;;0.70;;
74543;SDS011;63016;55.030;38.710;2023-05-29T12:00:26;2.13;;;0.70;;
74543;SDS011;63016;55.030;38.710;2023-05-29T12:02:57;3.92;;;0.70;;
74543;SDS011;63016;55.030;38.710;2023-05-29T12:05:23;2.50;;;0.90;;
74543;SDS011;63016;55.030;38.710;2023-05-29T12:07:52;0.95;;;0.60;;
74543;SDS011;63016;55.030;38.710;2023-05-29T12:10:19;0.80;;;0.60;;
74543;SDS011;63016;55.030;38.710;2023-05-29T12:12:52;10.02;;;1.02;;
74543;SDS011;63016;55.030;38.710;2023-05-29T12:15:23;4.78;;;0.70;;
74543;SDS011;63016;55.030;38.710;2023-05-29T12:17:49;4.80;;;1.42;;
74543;SDS011;63016;55.030;38.710;2023-05-29T12:20:16;2.95;;;0.70;;
74543;SDS011;63016;55.030;38.710;2023-05-29T12:22:43;4.03;;;0.73;;
74543;SDS011;63016;55.030;38.710;2023-05-29T12:25:11;2.47;;;0.70;;
74543;SDS011;63016;55.030;38.710;2023-05-29T12:27:38;5.80;;;1.00;;
74543;SDS011;63016;55.030;38.710;2023-05-29T12:30:11;9.90;;;1.10;;
74543;SDS011;63016;55.030;38.710;2023-05-29T12:32:42;2.75;;;0.77;;
74543;SDS011;63016;55.030;38.710;2023-05-29T12:38:06;4.65;;;0.70;;
74543;SDS011;63016;55.030;38.710;2023-05-29T12:40:33;6.28;;;0.70;;
74543;SDS011;63016;55.030;38.710;2023-05-29T12:43:00;4.55;;;0.93;;
74543;SDS011;63016;55.030;38.710;2023-05-29T12:45:30;1.67;;;0.60;;
74543;SDS011;63016;55.030;38.710;2023-05-29T12:47:58;13.27;;;1.52;;
74543;SDS011;63016;55.030;38.710;2023-05-29T12:50:30;5.60;;;1.10;;
74543;SDS011;63016;55.030;38.710;2023-05-29T12:53:03;2.92;;;0.80;;
74543;SDS011;63016;55.030;38.710;2023-05-29T12:55:34;1.98;;;0.80;;
74543;SDS011;63016;55.030;38.710;2023-05-29T12:58:07;1.73;;;0.82;;
74543;SDS011;63016;55.030;38.710;2023-05-29T13:00:34;1.80;;;0.75;;
74543;SDS011;63016;55.030;38.710;2023-05-29T13:03:01;2.58;;;0.57;;
74543;SDS011;63016;55.030;38.710;2023-05-29T13:05:26;3.35;;;0.75;;
74543;SDS011;63016;55.030;38.710;2023-05-29T13:07:52;1.20;;;0.80;;
74543;SDS011;63016;55.030;38.710;2023-05-29T13:10:19;0.95;;;0.80;;
74543;SDS011;63016;55.030;38.710;2023-05-29T13:12:45;3.75;;;0.80;;
74543;SDS011;63016;55.030;38.710;2023-05-29T13:15:12;3.15;;;0.80;;
74543;SDS011;63016;55.030;38.710;2023-05-29T13:17:39;1.13;;;0.70;;
74543;SDS011;63016;55.030;38.710;2023-05-29T13:20:07;2.83;;;0.65;;
74543;SDS011;63016;55.030;38.710;2023-05-29T13:22:35;0.60;;;0.60;;
74543;SDS011;63016;55.030;38.710;2023-05-29T13:25:00;1.83;;;0.80;;
74543;SDS011;63016;55.030;38.710;2023-05-29T13:27:26;1.42;;;0.60;;
74543;SDS011;63016;55.030;38.710;2023-05-29T13:29:52;2.25;;;0.60;;
74543;SDS011;63016;55.030;38.710;2023-05-29T13:32:19;0.80;;;0.68;;
74543;SDS011;63016;55.030;38.710;2023-05-29T13:34:45;3.55;;;0.90;;
74543;SDS011;63016;55.030;38.710;2023-05-29T13:37:10;3.08;;;0.77;;
74543;SDS011;63016;55.030;38.710;2023-05-29T13:39:36;1.70;;;0.70;;
74543;SDS011;63016;55.030;38.710;2023-05-29T13:42:01;1.98;;;0.75;;
74543;SDS011;63016;55.030;38.710;2023-05-29T13:44:27;2.70;;;0.70;;
74543;SDS011;63016;55.030;38.710;2023-05-29T13:46:52;1.10;;;0.85;;
74543;SDS011;63016;55.030;38.710;2023-05-29T13:49:18;1.27;;;0.70;;
74543;SDS011;63016;55.030;38.710;2023-05-29T13:51:44;1.23;;;0.60;;
74543;SDS011;63016;55.030;38.710;2023-05-29T13:54:12;1.25;;;0.73;;
74543;SDS011;63016;55.030;38.710;2023-05-29T13:56:37;0.75;;;0.60;;
74543;SDS011;63016;55.030;38.710;2023-05-29T13:59:03;1.20;;;0.50;;
74543;SDS011;63016;55.030;38.710;2023-05-29T14:01:31;3.00;;;0.60;;
74543;SDS011;63016;55.030;38.710;2023-05-29T14:03:58;0.80;;;0.60;;
74543;SDS011;63016;55.030;38.710;2023-05-29T14:06:24;2.33;;;0.60;;
74543;SDS011;63016;55.030;38.710;2023-05-29T14:08:49;1.77;;;0.60;;
74543;SDS011;63016;55.030;38.710;2023-05-29T14:11:15;1.75;;;0.60;;
74543;SDS011;63016;55.030;38.710;2023-05-29T14:13:40;2.47;;;0.70;;
74543;SDS011;63016;55.030;38.710;2023-05-29T14:16:06;1.98;;;0.60;;
74543;SDS011;63016;55.030;38.710;2023-05-29T14:18:31;1.15;;;0.60;;
74543;SDS011;63016;55.030;38.710;2023-05-29T14:20:57;0.73;;;0.60;;
74543;SDS011;63016;55.030;38.710;2023-05-29T14:23:22;2.42;;;0.70;;
74543;SDS011;63016;55.030;38.710;2023-05-29T14:25:48;1.25;;;0.60;;
74543;SDS011;63016;55.030;38.710;2023-05-29T14:28:13;1.02;;;0.60;;
74543;SDS011;63016;55.030;38.710;2023-05-29T14:30:39;1.10;;;0.60;;
74543;SDS011;63016;55.030;38.710;2023-05-29T14:33:04;1.90;;;0.60;;
74543;SDS011;63016;55.030;38.710;2023-05-29T14:35:30;1.55;;;0.70;;
74543;SDS011;63016;55.030;38.710;2023-05-29T14:37:56;0.95;;;0.70;;
74543;SDS011;63016;55.030;38.710;2023-05-29T14:40:22;1.63;;;0.60;;
74543;SDS011;63016;55.030;38.710;2023-05-29T14:42:48;0.98;;;0.70;;
74543;SDS011;63016;55.030;38.710;2023-05-29T14:45:13;1.00;;;0.60;;
74543;SDS011;63016;55.030;38.710;2023-05-29T14:47:40;2.15;;;0.63;;
74543;SDS011;63016;55.030;38.710;2023-05-29T14:50:06;1.25;;;0.50;;
74543;SDS011;63016;55.030;38.710;2023-05-29T14:52:32;2.28;;;0.60;;
74543;SDS011;63016;55.030;38.710;2023-05-29T14:54:58;1.20;;;0.70;;
74543;SDS011;63016;55.030;38.710;2023-05-29T14:57:25;1.52;;;0.63;;
74543;SDS011;63016;55.030;38.710;2023-05-29T14:59:50;2.00;;;0.60;;
74543;SDS011;63016;55.030;38.710;2023-05-29T15:02:16;1.60;;;0.60;;
74543;SDS011;63016;55.030;38.710;2023-05-29T15:04:41;0.85;;;0.60;;
74543;SDS011;63016;55.030;38.710;2023-05-29T15:07:07;3.00;;;0.80;;
74543;SDS011;63016;55.030;38.710;2023-05-29T15:09:32;2.50;;;0.73;;
74543;SDS011;63016;55.030;38.710;2023-05-29T15:11:58;2.05;;;0.60;;
74543;SDS011;63016;55.030;38.710;2023-05-29T15:14:24;0.63;;;0.60;;
74543;SDS011;63016;55.030;38.710;2023-05-29T15:16:49;3.38;;;0.77;;
74543;SDS011;63016;55.030;38.710;2023-05-29T15:19:15;1.30;;;0.60;;
74543;SDS011;63016;55.030;38.710;2023-05-29T15:21:41;1.23;;;0.60;;
74543;SDS011;63016;55.030;38.710;2023-05-29T15:24:06;2.35;;;0.60;;
74543;SDS011;63016;55.030;38.710;2023-05-29T15:26:33;2.15;;;0.57;;
74543;SDS011;63016;55.030;38.710;2023-05-29T15:28:59;0.90;;;0.70;;
74543;SDS011;63016;55.030;38.710;2023-05-29T15:31:25;1.08;;;0.60;;
74543;SDS011;63016;55.030;38.710;2023-05-29T15:33:50;1.25;;;0.93;;
74543;SDS011;63016;55.030;38.710;2023-05-29T15:36:16;3.45;;;0.73;;
74543;SDS011;63016;55.030;38.710;2023-05-29T15:38:44;1.42;;;0.50;;
74543;SDS011;63016;55.030;38.710;2023-05-29T15:41:09;1.25;;;0.60;;
74543;SDS011;63016;55.030;38.710;2023-05-29T15:43:35;0.98;;;0.60;;